This is the latest recevied weather packets stored in our database for station/object N1OTX. If no packets are shown the sender has not sent any weather packets the latest 10 day(s).
| Time | Temp. | Humidity | Pressure | Rain* | Wind** | Luminosity | Snow |
|---|---|---|---|---|---|---|---|
| 1777742430 | 13.33° C | 61% | 1011.1 hPa | 0 mm | - | 114 W/m² | - |
| 1777738831 | 12.22° C | 77% | 1011.4 hPa | 0 mm | - | 153 W/m² | - |
| 1777737930 | 12.22° C | 75% | 1011.6 hPa | 0 mm | - | 169 W/m² | - |
| 1777737030 | 12.22° C | 75% | 1011.8 hPa | 0 mm | - | 172 W/m² | - |
| 1777736449 | 12.22° C | 75% | 1012 hPa | 0 mm | - | 177 W/m² | - |
| 1777734330 | 12.22° C | 79% | 1011.9 hPa | 0 mm | - | 437 W/m² | - |
| 1777733730 | 11.67° C | 82% | 1011.8 hPa | 0 mm | - | 723 W/m² | - |
| 1777732229 | 9.44° C | 87% | 1012.1 hPa | 0.51 mm | - | 261 W/m² | - |
| 1777731329 | 8.89° C | 88% | 1012.2 hPa | 0.76 mm | - | 190 W/m² | - |
| 1777730731 | 8.89° C | 88% | 1012.2 hPa | 1.02 mm | - | 247 W/m² | - |
| 1777729830 | 8.33° C | 92% | 1012.1 hPa | 1.02 mm | - | 490 W/m² | - |
| 1777727429 | 8.33° C | 87% | 1013.1 hPa | 0.25 mm | - | 68 W/m² | - |
| 1777726829 | 8.33° C | 87% | 1012.9 hPa | 0.25 mm | - | 86 W/m² | - |
| 1777726231 | 8.33° C | 87% | 1012.7 hPa | 0 mm | - | 75 W/m² | - |
| 1777724730 | 8.89° C | 85% | 1012.6 hPa | 0.25 mm | - | 84 W/m² | - |
| 1777724130 | 8.89° C | 87% | 1012.4 hPa | 0.25 mm | - | 195 W/m² | - |
| 1777723249 | 8.89° C | 91% | 1012.3 hPa | 0.51 mm | - | 186 W/m² | - |
| 1777721430 | 8.89° C | 88% | 1012 hPa | 0.25 mm | - | 79 W/m² | - |
| 1777721130 | 8.89° C | 87% | 1012.1 hPa | 0.25 mm | - | 31 W/m² | - |
| 1777719929 | 8.89° C | 86% | 1011.9 hPa | 0 mm | - | 46 W/m² | - |
| 1777719029 | 8.89° C | 85% | 1011.7 hPa | 0 mm | - | 15 W/m² | - |
| 1777718729 | 8.33° C | 86% | 1011.7 hPa | 0 mm | - | 17 W/m² | - |
| 1777718429 | 8.33° C | 87% | 1011.6 hPa | 0 mm | - | 19 W/m² | - |
| 1777716930 | 7.78° C | 90% | 1011.2 hPa | 0 mm | - | 25 W/m² | - |
| 1777715749 | 8.33° C | 88% | 1011 hPa | 0 mm | - | 6 W/m² | - |
* Rain latest hour (hover to see other rain measurements)
** Current wind speed in m/s (hover to see current wind gust speed)